createdAt,value
2023-05-19T00:00:50.981Z,56.43
2023-05-19T00:01:55.024Z,56.93
2023-05-19T00:02:58.398Z,56.33
2023-05-19T00:04:02.862Z,56.00
2023-05-19T00:05:07.001Z,55.82
2023-05-19T00:06:09.844Z,55.98
2023-05-19T00:07:18.516Z,56.49
2023-05-19T00:08:22.724Z,56.03
2023-05-19T00:09:26.077Z,55.99
2023-05-19T00:10:31.658Z,56.00
2023-05-19T00:11:36.267Z,56.29
2023-05-19T00:12:38.713Z,57.06
2023-05-19T00:13:41.934Z,56.65
2023-05-19T00:14:44.385Z,57.68
2023-05-19T00:15:47.978Z,57.15
2023-05-19T00:16:50.515Z,57.91
2023-05-19T00:17:55.259Z,57.97
2023-05-19T00:18:59.879Z,58.29
2023-05-19T00:20:07.313Z,57.77
2023-05-19T00:21:09.360Z,57.77
2023-05-19T00:22:12.477Z,58.28
2023-05-19T00:23:15.774Z,57.95
2023-05-19T00:24:18.983Z,56.92
2023-05-19T00:25:21.065Z,57.51
2023-05-19T00:26:24.203Z,57.83
2023-05-19T00:27:43.816Z,56.89
2023-05-19T00:28:46.748Z,57.53
2023-05-19T00:29:49.720Z,57.65
2023-05-19T00:30:51.819Z,57.32
2023-05-19T00:31:54.790Z,57.59
2023-05-19T00:32:56.869Z,57.47
2023-05-19T00:33:59.830Z,57.98
2023-05-19T00:35:01.835Z,58.63
2023-05-19T00:36:05.890Z,58.31
2023-05-19T00:37:07.969Z,58.31
2023-05-19T00:38:10.820Z,58.02
2023-05-19T00:39:14.612Z,57.96
2023-05-19T00:40:17.917Z,56.85
2023-05-19T00:41:19.996Z,57.27
2023-05-19T00:42:23.418Z,57.21
2023-05-19T00:43:25.999Z,57.11
2023-05-19T00:44:28.927Z,58.05
2023-05-19T00:45:30.924Z,58.06
2023-05-19T00:46:34.043Z,57.48
2023-05-19T00:47:36.253Z,57.01
2023-05-19T00:48:39.234Z,57.26
2023-05-19T00:49:41.211Z,56.84
2023-05-19T00:50:44.683Z,57.36
2023-05-19T00:51:46.714Z,57.41
2023-05-19T00:52:50.503Z,58.35
2023-05-19T00:53:52.517Z,57.59
2023-05-19T00:54:57.052Z,57.34
2023-05-19T00:56:00.499Z,57.26
2023-05-19T00:57:04.611Z,57.95
2023-05-19T00:58:07.142Z,57.81
2023-05-19T00:59:10.264Z,58.00
2023-05-19T01:00:14.090Z,57.36
2023-05-19T01:01:17.420Z,58.13
2023-05-19T01:02:19.670Z,58.11
2023-05-19T01:03:23.426Z,57.43
2023-05-19T01:04:26.577Z,58.05
2023-05-19T01:05:29.588Z,58.07
2023-05-19T01:06:31.528Z,56.89
2023-05-19T01:07:34.507Z,57.93
2023-05-19T01:08:37.853Z,58.33
2023-05-19T01:09:41.605Z,57.80
2023-05-19T01:10:45.170Z,58.63
2023-05-19T01:11:48.205Z,57.38
2023-05-19T01:12:50.255Z,57.67
2023-05-19T01:13:53.605Z,57.67
2023-05-19T01:14:56.240Z,57.40
2023-05-19T01:16:03.330Z,57.26
2023-05-19T01:17:15.112Z,57.13
2023-05-19T01:18:23.764Z,56.91
2023-05-19T01:19:41.349Z,57.50
2023-05-19T01:20:48.132Z,57.87
2023-05-19T01:22:14.899Z,57.52
2023-05-19T01:23:29.194Z,57.56
2023-05-19T01:24:51.362Z,57.22
2023-05-19T01:26:37.004Z,58.37
2023-05-19T01:27:49.842Z,59.05
2023-05-19T01:29:28.597Z,59.17
2023-05-19T01:30:37.088Z,59.29
2023-05-19T01:31:42.119Z,59.06
2023-05-19T01:32:45.585Z,58.83
2023-05-19T01:33:50.341Z,58.72
2023-05-19T01:34:54.687Z,58.46
2023-05-19T01:35:58.477Z,59.70
2023-05-19T01:37:01.637Z,59.42
2023-05-19T01:38:06.464Z,60.11
2023-05-19T01:39:08.758Z,59.29
2023-05-19T01:40:12.243Z,60.58
2023-05-19T01:41:15.822Z,60.17
2023-05-19T01:42:20.402Z,60.04
2023-05-19T01:43:25.349Z,58.52
2023-05-19T01:44:29.660Z,59.00
2023-05-19T01:45:34.181Z,58.40
2023-05-19T01:46:38.556Z,58.24
2023-05-19T01:47:42.845Z,58.35
2023-05-19T01:48:46.561Z,58.79
2023-05-19T01:49:48.810Z,58.82
2023-05-19T01:50:52.359Z,58.78
2023-05-19T01:51:54.451Z,58.70
2023-05-19T01:52:58.837Z,58.40
2023-05-19T01:54:01.189Z,58.14
2023-05-19T01:55:04.146Z,58.04
2023-05-19T01:56:07.215Z,58.11
2023-05-19T01:57:18.423Z,57.66
2023-05-19T01:58:28.938Z,57.64
2023-05-19T01:59:48.766Z,57.83
2023-05-19T02:01:02.290Z,58.30
2023-05-19T02:02:15.647Z,58.21
2023-05-19T02:03:30.124Z,58.67
2023-05-19T02:04:40.898Z,58.09
2023-05-19T02:05:59.331Z,57.40
2023-05-19T02:07:05.852Z,58.45
2023-05-19T02:08:17.037Z,57.90
2023-05-19T02:09:26.168Z,57.96
2023-05-19T02:10:31.131Z,58.15
2023-05-19T02:11:38.796Z,58.87
2023-05-19T02:12:41.478Z,59.02
2023-05-19T02:13:48.212Z,59.12
2023-05-19T02:14:55.049Z,59.23
2023-05-19T02:16:04.686Z,58.92
2023-05-19T02:17:07.066Z,59.16
2023-05-19T02:18:11.529Z,59.07
2023-05-19T02:19:21.853Z,58.61
2023-05-19T02:20:24.932Z,59.59
2023-05-19T02:21:26.865Z,59.03
2023-05-19T02:22:31.755Z,58.84
2023-05-19T02:23:33.649Z,59.08
2023-05-19T02:24:36.703Z,58.96
2023-05-19T02:25:38.647Z,58.96
2023-05-19T02:26:42.175Z,58.57
2023-05-19T02:27:44.102Z,59.05
2023-05-19T02:28:46.950Z,59.34
2023-05-19T02:29:48.953Z,58.68
2023-05-19T02:30:52.136Z,59.22
2023-05-19T02:31:57.327Z,58.49
2023-05-19T02:33:00.556Z,58.60
2023-05-19T02:34:02.504Z,59.57
2023-05-19T02:35:07.201Z,59.34
2023-05-19T02:36:10.172Z,59.00
2023-05-19T02:37:13.687Z,59.92
2023-05-19T02:38:15.720Z,58.62
2023-05-19T02:39:19.249Z,58.71
2023-05-19T02:40:23.049Z,58.79
2023-05-19T02:41:26.216Z,59.03
2023-05-19T02:42:28.135Z,59.52
2023-05-19T02:43:31.452Z,58.90
2023-05-19T02:44:33.489Z,58.11
2023-05-19T02:45:36.395Z,58.25
2023-05-19T02:46:38.780Z,58.28
2023-05-19T02:47:43.163Z,58.71
2023-05-19T02:48:45.200Z,58.88
2023-05-19T02:49:48.091Z,58.58
2023-05-19T02:50:50.743Z,58.25
2023-05-19T02:51:53.915Z,58.96
2023-05-19T02:52:55.896Z,58.62
2023-05-19T02:53:58.948Z,58.53
2023-05-19T02:55:00.956Z,59.01
2023-05-19T02:56:04.118Z,58.87
2023-05-19T02:57:06.851Z,59.04
2023-05-19T02:58:09.741Z,58.51
2023-05-19T02:59:11.641Z,58.72
2023-05-19T03:00:15.610Z,58.85
2023-05-19T03:01:21.332Z,58.35
2023-05-19T03:02:24.311Z,57.96
2023-05-19T03:03:28.708Z,58.18
2023-05-19T03:04:31.684Z,58.44
2023-05-19T03:05:33.671Z,59.09
2023-05-19T03:06:36.642Z,58.62
2023-05-19T03:07:38.513Z,59.28
2023-05-19T03:08:42.428Z,59.21
2023-05-19T03:09:45.497Z,58.80
2023-05-19T03:10:48.130Z,58.22
2023-05-19T03:11:51.272Z,58.97
2023-05-19T03:12:53.212Z,59.06
2023-05-19T03:13:56.150Z,59.60
2023-05-19T03:14:58.019Z,59.33
2023-05-19T03:16:02.091Z,59.40
2023-05-19T03:17:04.892Z,59.20
2023-05-19T03:18:07.965Z,59.20
2023-05-19T03:19:11.513Z,59.24
2023-05-19T03:20:15.774Z,59.79
2023-05-19T03:21:17.703Z,59.75
2023-05-19T03:22:20.974Z,59.85
2023-05-19T03:23:22.897Z,58.58
2023-05-19T03:24:25.798Z,58.87
2023-05-19T03:25:27.691Z,59.33
2023-05-19T03:26:30.625Z,59.77
2023-05-19T03:27:32.557Z,60.29
2023-05-19T03:28:35.506Z,59.98
2023-05-19T03:29:37.386Z,59.90
2023-05-19T03:30:40.333Z,60.55
2023-05-19T03:31:47.289Z,60.08
2023-05-19T03:32:52.647Z,59.70
2023-05-19T03:33:54.754Z,60.04
2023-05-19T03:34:59.747Z,59.26
2023-05-19T03:36:01.884Z,59.70
2023-05-19T03:37:10.586Z,60.78
2023-05-19T03:38:13.348Z,59.75
2023-05-19T03:39:22.825Z,59.88
2023-05-19T03:40:25.234Z,59.19
2023-05-19T03:41:36.595Z,58.76
2023-05-19T03:42:39.131Z,59.05
2023-05-19T03:43:42.185Z,58.44
2023-05-19T03:44:45.598Z,58.38
2023-05-19T03:45:50.071Z,59.28
2023-05-19T03:47:11.474Z,59.23
2023-05-19T03:48:31.923Z,59.06
2023-05-19T03:49:53.363Z,59.23
2023-05-19T03:51:15.140Z,58.51
2023-05-19T03:52:18.300Z,59.93
2023-05-19T03:53:30.706Z,60.59
2023-05-19T03:54:33.602Z,61.04
2023-05-19T03:55:37.230Z,60.37
2023-05-19T03:56:41.137Z,61.30
2023-05-19T03:57:44.284Z,60.37
2023-05-19T03:58:48.232Z,60.84
2023-05-19T03:59:50.236Z,59.86
2023-05-19T04:00:53.226Z,59.82
2023-05-19T04:01:55.172Z,59.89
2023-05-19T04:02:58.162Z,60.70
2023-05-19T04:04:00.279Z,60.07
2023-05-19T04:05:05.027Z,60.51
2023-05-19T04:06:07.375Z,58.51
2023-05-19T04:07:11.732Z,59.89
2023-05-19T04:08:13.591Z,59.71
2023-05-19T04:09:17.387Z,59.23
2023-05-19T04:10:19.811Z,60.02
2023-05-19T04:11:23.327Z,59.24
2023-05-19T04:12:26.863Z,58.78
2023-05-19T04:13:29.768Z,59.03
2023-05-19T04:14:31.673Z,59.83
2023-05-19T04:15:35.060Z,59.80
2023-05-19T04:16:37.213Z,58.57
2023-05-19T04:17:40.750Z,59.22
2023-05-19T04:18:46.237Z,59.21
2023-05-19T04:19:49.325Z,59.66
2023-05-19T04:20:51.279Z,59.27
2023-05-19T04:21:55.666Z,58.19
2023-05-19T04:22:58.979Z,59.54
2023-05-19T04:24:01.856Z,58.90
2023-05-19T04:25:04.977Z,58.95
2023-05-19T04:26:07.979Z,58.60
2023-05-19T04:27:12.189Z,60.19
2023-05-19T04:28:16.389Z,58.24
2023-05-19T04:29:18.686Z,59.22
2023-05-19T04:30:22.684Z,59.05
2023-05-19T04:31:27.458Z,59.94
2023-05-19T04:32:31.081Z,59.72
2023-05-19T04:33:33.994Z,59.12
2023-05-19T04:34:40.249Z,59.22
2023-05-19T04:35:43.808Z,59.79
2023-05-19T04:36:48.574Z,59.30
2023-05-19T04:37:54.289Z,59.43
2023-05-19T04:39:07.332Z,60.45
2023-05-19T04:40:11.148Z,60.52
2023-05-19T04:41:16.474Z,60.15
2023-05-19T04:42:19.503Z,60.75
2023-05-19T04:43:22.976Z,59.92
2023-05-19T04:44:26.321Z,60.82
2023-05-19T04:45:30.124Z,59.12
2023-05-19T04:46:35.139Z,59.66
2023-05-19T04:47:38.348Z,58.63
2023-05-19T04:48:41.195Z,58.72
2023-05-19T04:49:46.023Z,58.60
2023-05-19T04:50:48.840Z,66.98
2023-05-19T04:51:55.522Z,61.25
2023-05-19T04:53:01.274Z,59.45
2023-05-19T04:54:05.701Z,60.04
2023-05-19T04:55:11.214Z,59.39
2023-05-19T04:56:15.381Z,60.61
2023-05-19T04:57:17.693Z,60.20
2023-05-19T04:58:21.826Z,59.99
2023-05-19T04:59:25.116Z,59.54
2023-05-19T05:00:28.350Z,59.69
2023-05-19T05:01:35.388Z,60.29
2023-05-19T05:02:37.448Z,61.20
2023-05-19T05:03:40.553Z,61.39
2023-05-19T05:04:44.152Z,61.49
2023-05-19T05:05:47.041Z,62.49
2023-05-19T05:06:49.563Z,62.00
2023-05-19T05:07:54.904Z,62.10
2023-05-19T05:08:58.567Z,62.01
2023-05-19T05:10:03.830Z,61.51
2023-05-19T05:11:07.006Z,60.30
2023-05-19T05:12:12.394Z,60.56
2023-05-19T05:13:15.979Z,61.62
2023-05-19T05:14:19.366Z,60.45
2023-05-19T05:15:24.258Z,61.16
2023-05-19T05:16:28.185Z,60.63
2023-05-19T05:17:32.549Z,61.60
2023-05-19T05:18:36.617Z,60.12
2023-05-19T05:19:39.378Z,61.62
2023-05-19T05:20:43.888Z,60.92
2023-05-19T05:21:47.788Z,62.60
2023-05-19T05:22:52.456Z,61.66
2023-05-19T05:23:56.122Z,62.41
2023-05-19T05:25:04.369Z,61.62
2023-05-19T05:26:11.055Z,61.04
2023-05-19T05:27:14.524Z,60.89
2023-05-19T05:28:16.720Z,61.45
2023-05-19T05:29:20.838Z,60.26
2023-05-19T05:30:22.860Z,61.20
2023-05-19T05:31:25.919Z,61.40
2023-05-19T05:32:28.759Z,61.38
2023-05-19T05:33:31.918Z,62.94
2023-05-19T05:34:34.294Z,62.04
2023-05-19T05:35:37.282Z,62.22
2023-05-19T05:36:41.275Z,60.44
2023-05-19T05:37:45.936Z,62.34
2023-05-19T05:38:48.107Z,62.88
2023-05-19T05:39:51.206Z,62.90
2023-05-19T05:40:55.789Z,62.20
2023-05-19T05:41:57.714Z,62.35
2023-05-19T05:43:00.743Z,61.67
2023-05-19T05:44:06.365Z,61.63
2023-05-19T05:45:09.796Z,61.12
2023-05-19T05:46:12.015Z,60.47
2023-05-19T05:47:15.840Z,59.66
2023-05-19T05:48:18.721Z,60.21
2023-05-19T05:49:22.350Z,60.60
2023-05-19T05:50:25.813Z,59.51
2023-05-19T05:51:32.917Z,60.41
2023-05-19T05:52:37.211Z,60.76
2023-05-19T05:53:44.058Z,60.96
2023-05-19T05:54:48.006Z,59.69
2023-05-19T05:55:55.936Z,60.40
2023-05-19T05:57:03.881Z,60.12
2023-05-19T05:58:11.338Z,58.87
2023-05-19T05:59:14.314Z,59.36
2023-05-19T06:00:18.020Z,59.58
2023-05-19T06:01:28.118Z,60.59
2023-05-19T06:02:30.281Z,60.11
2023-05-19T06:03:34.749Z,60.24
2023-05-19T06:04:41.215Z,60.77
2023-05-19T06:05:44.205Z,60.31
2023-05-19T06:06:46.223Z,60.71
2023-05-19T06:07:53.900Z,60.42
2023-05-19T06:08:59.912Z,60.60
2023-05-19T06:10:04.150Z,60.96
2023-05-19T06:11:08.285Z,60.26
2023-05-19T06:12:12.238Z,60.26
2023-05-19T06:13:23.957Z,60.14
2023-05-19T06:14:27.007Z,60.48
2023-05-19T06:15:49.172Z,61.12
2023-05-19T06:16:56.789Z,60.63
2023-05-19T06:17:58.743Z,60.79
2023-05-19T06:19:01.773Z,59.87
2023-05-19T06:20:05.454Z,61.09
2023-05-19T06:21:10.274Z,60.52
2023-05-19T06:22:13.015Z,60.98
2023-05-19T06:23:15.954Z,60.62
2023-05-19T06:24:18.093Z,60.20
2023-05-19T06:25:21.277Z,60.79
2023-05-19T06:26:24.581Z,60.40
2023-05-19T06:27:27.492Z,60.47
2023-05-19T06:28:30.516Z,59.79
2023-05-19T06:29:32.776Z,60.23
2023-05-19T06:30:39.330Z,60.10
2023-05-19T06:31:56.509Z,59.91
2023-05-19T06:32:58.824Z,59.76
2023-05-19T06:34:02.914Z,60.16
2023-05-19T06:35:05.707Z,59.36
2023-05-19T06:36:10.144Z,59.67
2023-05-19T06:37:17.002Z,59.25
2023-05-19T06:38:19.938Z,59.76
2023-05-19T06:39:21.894Z,58.93
2023-05-19T06:40:25.072Z,58.64
2023-05-19T06:41:29.959Z,58.84
2023-05-19T06:42:32.927Z,58.86
2023-05-19T06:43:49.441Z,58.62
2023-05-19T06:44:52.673Z,57.81
2023-05-19T06:45:55.587Z,58.62
2023-05-19T06:46:59.854Z,58.49
2023-05-19T06:48:02.876Z,58.44
2023-05-19T06:49:05.007Z,58.99
2023-05-19T06:50:12.939Z,58.69
2023-05-19T06:51:21.640Z,58.18
2023-05-19T06:52:28.978Z,58.06
2023-05-19T06:53:34.084Z,58.58
2023-05-19T06:54:39.573Z,58.68
2023-05-19T06:55:57.462Z,57.82
2023-05-19T06:57:05.062Z,57.52
2023-05-19T06:58:08.017Z,56.87
2023-05-19T06:59:10.302Z,57.05
2023-05-19T07:00:17.927Z,56.94
2023-05-19T07:01:24.319Z,57.44
2023-05-19T07:02:29.883Z,57.52
2023-05-19T07:03:33.646Z,57.45
2023-05-19T07:04:35.757Z,58.11
2023-05-19T07:05:38.701Z,58.22
2023-05-19T07:06:40.658Z,58.18
2023-05-19T07:07:45.066Z,57.84
2023-05-19T07:08:49.574Z,57.62
2023-05-19T07:09:53.603Z,57.85
2023-05-19T07:10:56.321Z,58.24
2023-05-19T07:11:59.361Z,57.89
2023-05-19T07:13:04.478Z,57.65
2023-05-19T07:14:08.266Z,57.98
2023-05-19T07:15:12.378Z,58.26
2023-05-19T07:16:14.753Z,58.17
2023-05-19T07:17:17.806Z,57.52
2023-05-19T07:18:21.187Z,57.02
2023-05-19T07:19:24.315Z,57.76
2023-05-19T07:20:29.813Z,57.71
2023-05-19T07:21:33.681Z,57.88
2023-05-19T07:22:35.926Z,57.99
2023-05-19T07:23:38.995Z,57.29
2023-05-19T07:24:40.927Z,57.71
2023-05-19T07:25:43.875Z,57.79
2023-05-19T07:26:45.759Z,57.27
2023-05-19T07:27:48.726Z,57.31
2023-05-19T07:28:52.309Z,57.66
2023-05-19T07:29:55.535Z,56.62
2023-05-19T07:30:57.471Z,57.22
2023-05-19T07:32:00.537Z,56.76
2023-05-19T07:33:03.624Z,57.02
2023-05-19T07:34:06.011Z,57.72
2023-05-19T07:35:09.446Z,57.51
2023-05-19T07:36:11.385Z,57.63
2023-05-19T07:37:14.305Z,57.08
2023-05-19T07:38:16.222Z,56.85
2023-05-19T07:39:19.559Z,56.15
2023-05-19T07:40:21.730Z,56.52
2023-05-19T07:41:24.644Z,56.81
2023-05-19T07:42:26.724Z,57.10
2023-05-19T07:43:29.728Z,57.38
2023-05-19T07:44:34.995Z,56.66
2023-05-19T07:45:37.184Z,56.88
2023-05-19T07:46:40.106Z,56.50
2023-05-19T07:47:42.118Z,56.60
2023-05-19T07:48:45.370Z,56.54
2023-05-19T07:49:50.387Z,56.79
2023-05-19T07:50:53.809Z,56.99
2023-05-19T07:51:56.783Z,56.93
2023-05-19T07:52:59.763Z,57.26
2023-05-19T07:54:02.281Z,56.47
2023-05-19T07:55:05.682Z,57.28
2023-05-19T07:56:07.626Z,57.32
2023-05-19T07:57:10.632Z,57.08
2023-05-19T07:58:12.841Z,57.36
2023-05-19T07:59:16.034Z,56.70
2023-05-19T08:00:19.970Z,57.25
2023-05-19T08:01:22.884Z,56.91
2023-05-19T08:02:24.977Z,56.68
2023-05-19T08:03:28.459Z,56.85
2023-05-19T08:04:31.626Z,56.05
2023-05-19T08:05:34.930Z,57.17
2023-05-19T08:06:37.881Z,57.48
2023-05-19T08:07:40.005Z,57.04
2023-05-19T08:08:43.247Z,56.33
2023-05-19T08:09:45.153Z,56.90
2023-05-19T08:10:48.076Z,56.27
2023-05-19T08:11:51.082Z,56.62
2023-05-19T08:12:53.975Z,56.96
2023-05-19T08:13:55.969Z,57.04
2023-05-19T08:15:01.172Z,56.79
2023-05-19T08:16:05.350Z,56.61
2023-05-19T08:17:08.372Z,57.16
2023-05-19T08:18:10.556Z,56.89
2023-05-19T08:19:13.591Z,57.20
2023-05-19T08:20:16.046Z,57.00
2023-05-19T08:21:18.994Z,56.91
2023-05-19T08:22:22.033Z,56.76
2023-05-19T08:23:23.964Z,57.33
2023-05-19T08:24:29.461Z,57.25
2023-05-19T08:25:31.458Z,56.60
2023-05-19T08:26:36.922Z,58.07
2023-05-19T08:27:39.601Z,58.12
2023-05-19T08:28:42.541Z,57.58
2023-05-19T08:29:44.780Z,58.23
2023-05-19T08:30:47.755Z,57.66
2023-05-19T08:31:53.091Z,58.13
2023-05-19T08:32:55.600Z,57.79
2023-05-19T08:33:58.794Z,58.14
2023-05-19T08:35:00.782Z,58.00
2023-05-19T08:36:03.801Z,57.99
2023-05-19T08:37:05.755Z,57.98
2023-05-19T08:38:08.703Z,57.60
2023-05-19T08:39:11.033Z,57.24
2023-05-19T08:40:18.384Z,57.55
2023-05-19T08:41:21.541Z,56.83
2023-05-19T08:42:24.669Z,57.47
2023-05-19T08:43:27.624Z,57.28
2023-05-19T08:44:30.940Z,57.85
2023-05-19T08:45:34.961Z,57.28
2023-05-19T08:46:37.238Z,56.44
2023-05-19T08:47:42.487Z,56.51
2023-05-19T08:48:45.176Z,56.88
2023-05-19T08:49:53.860Z,56.94
2023-05-19T08:51:09.075Z,56.35
2023-05-19T08:52:21.044Z,56.34
2023-05-19T08:54:55.850Z,56.09
2023-05-19T08:56:02.302Z,56.53
2023-05-19T08:57:05.946Z,56.67
2023-05-19T08:58:08.631Z,56.17
2023-05-19T08:59:12.546Z,56.09
2023-05-19T09:00:17.897Z,56.95
2023-05-19T09:01:21.339Z,56.06
2023-05-19T09:02:24.367Z,56.45
2023-05-19T09:03:29.385Z,56.88
2023-05-19T09:04:33.426Z,56.47
2023-05-19T09:05:35.918Z,56.91
2023-05-19T09:06:40.938Z,56.56
2023-05-19T09:07:44.936Z,56.10
2023-05-19T09:08:48.220Z,55.66
2023-05-19T09:09:50.127Z,56.42
2023-05-19T09:10:53.134Z,56.99
2023-05-19T09:11:56.163Z,56.60
2023-05-19T09:12:58.633Z,57.25
2023-05-19T09:14:01.560Z,56.93
2023-05-19T09:15:04.709Z,56.23
2023-05-19T09:16:08.817Z,56.84
2023-05-19T09:17:12.011Z,56.76
2023-05-19T09:18:15.185Z,56.17
2023-05-19T09:19:20.837Z,56.30
2023-05-19T09:20:23.069Z,56.32
2023-05-19T09:21:31.099Z,56.20
2023-05-19T09:22:35.660Z,56.06
2023-05-19T09:23:38.540Z,56.58
2023-05-19T09:24:41.404Z,56.67
2023-05-19T09:25:51.557Z,56.56
2023-05-19T09:26:56.999Z,56.66
2023-05-19T09:28:00.898Z,56.25
2023-05-19T09:29:03.246Z,56.08
2023-05-19T09:30:10.344Z,55.76
2023-05-19T09:31:13.865Z,55.86
2023-05-19T09:32:25.021Z,56.54
2023-05-19T09:33:28.264Z,56.46
2023-05-19T09:34:32.596Z,56.27
2023-05-19T09:35:35.216Z,56.02
2023-05-19T09:36:40.947Z,56.71
2023-05-19T09:37:44.522Z,56.14
2023-05-19T09:38:47.489Z,56.27
2023-05-19T09:39:52.782Z,55.92
2023-05-19T09:40:58.133Z,56.16
2023-05-19T09:42:07.292Z,55.44
2023-05-19T09:43:09.875Z,55.84
2023-05-19T09:44:23.575Z,56.09
2023-05-19T09:45:28.395Z,56.26
2023-05-19T09:46:30.450Z,56.65
2023-05-19T09:47:38.178Z,55.89
2023-05-19T09:48:41.247Z,56.53
2023-05-19T09:49:47.798Z,56.03
2023-05-19T09:50:51.713Z,55.77
2023-05-19T09:51:54.598Z,55.87
2023-05-19T09:52:58.457Z,55.75
2023-05-19T09:54:00.696Z,55.68
2023-05-19T09:55:05.633Z,56.03
2023-05-19T09:56:09.735Z,55.84
2023-05-19T09:57:12.674Z,55.70
2023-05-19T09:58:17.402Z,55.20
2023-05-19T09:59:24.976Z,55.88
2023-05-19T10:00:28.179Z,56.38
2023-05-19T10:01:33.662Z,55.90
2023-05-19T10:02:36.552Z,56.13
2023-05-19T10:03:40.301Z,55.60
2023-05-19T10:04:42.759Z,55.98
2023-05-19T10:05:48.686Z,55.67
2023-05-19T10:06:53.591Z,55.75
2023-05-19T10:07:56.725Z,55.84
2023-05-19T10:09:01.408Z,55.97
2023-05-19T10:10:03.806Z,55.63
2023-05-19T10:11:07.669Z,55.40
2023-05-19T10:12:12.206Z,55.90
2023-05-19T10:13:15.748Z,55.38
2023-05-19T10:14:19.295Z,55.53
2023-05-19T10:15:23.368Z,55.82
2023-05-19T10:16:28.900Z,55.57
2023-05-19T10:17:32.554Z,55.64
2023-05-19T10:18:37.711Z,55.90
2023-05-19T10:19:44.411Z,55.74
2023-05-19T10:20:50.131Z,55.76
2023-05-19T10:21:53.221Z,55.65
2023-05-19T10:22:56.529Z,55.82
2023-05-19T10:23:58.569Z,55.88
2023-05-19T10:25:01.567Z,56.03
2023-05-19T10:26:06.882Z,55.43
2023-05-19T10:27:14.522Z,55.84
2023-05-19T10:28:20.522Z,55.88
2023-05-19T10:29:28.465Z,55.65
2023-05-19T10:30:36.169Z,55.88
2023-05-19T10:31:41.691Z,55.75
2023-05-19T10:32:48.542Z,56.32
2023-05-19T10:34:06.571Z,56.27
2023-05-19T10:35:32.521Z,56.63
2023-05-19T10:36:47.464Z,56.13
2023-05-19T10:37:58.984Z,56.17
2023-05-19T10:39:06.319Z,55.87
2023-05-19T10:40:13.624Z,56.29
2023-05-19T10:41:26.055Z,56.47
2023-05-19T10:42:36.756Z,56.17
2023-05-19T10:43:50.383Z,56.43
2023-05-19T10:45:02.323Z,56.23
2023-05-19T10:46:05.051Z,55.93
2023-05-19T10:47:08.655Z,56.37
2023-05-19T10:48:12.786Z,56.38
2023-05-19T10:49:22.169Z,56.35
2023-05-19T10:50:25.241Z,56.99
2023-05-19T10:51:32.840Z,56.76
2023-05-19T10:52:39.313Z,56.18
2023-05-19T10:53:46.146Z,56.50
2023-05-19T10:54:49.580Z,56.82
2023-05-19T10:55:56.583Z,56.95
2023-05-19T10:56:58.544Z,57.35
2023-05-19T10:58:01.511Z,56.65
2023-05-19T10:59:04.675Z,55.88
2023-05-19T11:00:28.792Z,56.14
2023-05-19T11:01:33.705Z,56.40
2023-05-19T11:02:41.222Z,56.83
2023-05-19T11:03:49.617Z,56.71
2023-05-19T11:04:53.455Z,57.26
2023-05-19T11:06:18.884Z,56.90
2023-05-19T11:07:24.575Z,56.67
2023-05-19T11:08:33.507Z,57.25
2023-05-19T11:09:41.803Z,57.58
2023-05-19T11:10:46.025Z,57.17
2023-05-19T11:11:50.331Z,56.65
2023-05-19T11:12:52.375Z,57.02
2023-05-19T11:13:56.852Z,56.56
2023-05-19T11:14:59.568Z,57.18
2023-05-19T11:16:08.694Z,56.65
2023-05-19T11:17:15.856Z,57.14
2023-05-19T11:18:19.478Z,57.29
2023-05-19T11:19:28.252Z,56.63
2023-05-19T11:20:32.028Z,56.24
2023-05-19T11:21:49.096Z,56.57
2023-05-19T11:23:08.637Z,56.39
2023-05-19T11:24:40.695Z,56.33
2023-05-19T11:25:44.297Z,56.41
2023-05-19T11:26:47.516Z,56.53
2023-05-19T11:27:52.819Z,56.51
2023-05-19T11:28:55.937Z,56.54
2023-05-19T11:29:59.521Z,56.78
2023-05-19T11:31:04.085Z,56.32
2023-05-19T11:32:07.365Z,56.60
2023-05-19T11:33:11.060Z,56.15
2023-05-19T11:34:13.906Z,56.01
2023-05-19T11:35:19.138Z,55.59
2023-05-19T11:36:23.384Z,55.74
2023-05-19T11:37:25.578Z,56.17
2023-05-19T11:38:30.200Z,56.08
2023-05-19T11:39:35.003Z,55.88
2023-05-19T11:40:38.152Z,56.31
2023-05-19T11:41:40.652Z,56.42
2023-05-19T11:42:44.848Z,56.72
2023-05-19T11:43:48.592Z,56.71
2023-05-19T11:44:50.516Z,56.85
2023-05-19T11:45:54.736Z,56.71
2023-05-19T11:46:57.697Z,56.96
2023-05-19T11:48:03.068Z,57.11
2023-05-19T11:49:05.813Z,56.68
2023-05-19T11:50:12.624Z,56.77
2023-05-19T11:51:16.504Z,56.28
2023-05-19T11:52:21.972Z,56.39
2023-05-19T11:53:25.038Z,56.56
2023-05-19T11:54:31.637Z,56.83
2023-05-19T11:55:36.890Z,56.68
2023-05-19T11:56:41.795Z,56.73
2023-05-19T11:58:02.886Z,56.71
2023-05-19T11:59:06.545Z,56.21
2023-05-19T12:00:10.726Z,56.48
2023-05-19T12:01:13.910Z,56.39
2023-05-19T12:02:19.093Z,56.52
2023-05-19T12:03:26.496Z,56.29
2023-05-19T12:04:29.073Z,56.11
2023-05-19T12:05:35.441Z,56.35
2023-05-19T12:06:41.674Z,56.28
2023-05-19T12:07:44.295Z,56.29
2023-05-19T12:08:47.407Z,56.06
2023-05-19T12:09:51.719Z,56.52
2023-05-19T12:10:56.215Z,56.46
2023-05-19T12:11:59.485Z,56.87
2023-05-19T12:13:03.045Z,57.45
2023-05-19T12:14:07.060Z,57.20
2023-05-19T12:15:10.465Z,56.61
2023-05-19T12:16:13.579Z,56.69
2023-05-19T12:17:17.632Z,56.99
2023-05-19T12:18:21.081Z,56.42
2023-05-19T12:19:24.498Z,56.61
2023-05-19T12:20:27.657Z,56.81
2023-05-19T12:21:33.726Z,56.79
2023-05-19T12:22:38.045Z,56.91
2023-05-19T12:23:41.544Z,57.28
2023-05-19T12:24:45.905Z,57.41
2023-05-19T12:25:49.510Z,56.78
2023-05-19T12:26:53.756Z,56.52
2023-05-19T12:27:58.357Z,57.17
2023-05-19T12:29:01.555Z,57.13
2023-05-19T12:30:04.487Z,56.88
2023-05-19T12:31:07.503Z,56.74
2023-05-19T12:32:10.206Z,56.52
2023-05-19T12:33:13.248Z,57.03
2023-05-19T12:34:15.908Z,56.70
2023-05-19T12:35:19.751Z,56.77
2023-05-19T12:36:25.070Z,56.88
2023-05-19T12:37:27.760Z,57.66
2023-05-19T12:38:30.713Z,57.38
2023-05-19T12:39:34.073Z,57.18
2023-05-19T12:40:40.566Z,57.08
2023-05-19T12:41:45.205Z,57.43
2023-05-19T12:42:52.160Z,56.68
2023-05-19T12:43:56.166Z,57.22
2023-05-19T12:45:00.741Z,56.90
2023-05-19T12:46:11.118Z,56.84
2023-05-19T12:47:13.495Z,57.35
2023-05-19T12:48:17.239Z,57.75
2023-05-19T12:49:19.448Z,57.22
2023-05-19T12:50:22.381Z,56.84
2023-05-19T12:51:25.325Z,56.45
2023-05-19T12:52:29.431Z,56.58
2023-05-19T12:53:34.707Z,56.45
2023-05-19T12:54:36.930Z,56.75
2023-05-19T12:55:42.936Z,56.83
2023-05-19T12:56:50.548Z,56.94
2023-05-19T12:57:57.887Z,56.57
2023-05-19T12:59:01.682Z,56.27
2023-05-19T13:00:07.414Z,56.93
2023-05-19T13:01:17.468Z,57.08
2023-05-19T13:02:21.012Z,56.67
2023-05-19T13:03:23.985Z,57.67
2023-05-19T13:04:26.884Z,56.91
2023-05-19T13:05:31.172Z,57.17
2023-05-19T13:06:33.669Z,56.23
2023-05-19T13:07:36.641Z,56.67
2023-05-19T13:08:39.748Z,56.35
2023-05-19T13:09:42.652Z,56.97
2023-05-19T13:10:47.201Z,56.68
2023-05-19T13:11:51.288Z,56.18
2023-05-19T13:12:56.762Z,55.96
2023-05-19T13:13:59.686Z,56.51
2023-05-19T13:15:01.602Z,56.27
2023-05-19T13:16:04.623Z,56.49
2023-05-19T13:17:06.762Z,55.69
2023-05-19T13:18:11.230Z,56.81
2023-05-19T13:19:24.995Z,56.89
2023-05-19T13:20:28.902Z,57.02
2023-05-19T13:21:31.885Z,56.31
2023-05-19T13:22:33.822Z,56.78
2023-05-19T13:23:36.713Z,56.82
2023-05-19T13:24:38.648Z,57.03
2023-05-19T13:25:42.336Z,56.55
2023-05-19T13:26:44.417Z,56.20
2023-05-19T13:27:48.935Z,56.12
2023-05-19T13:28:53.213Z,56.62
2023-05-19T13:29:55.233Z,56.93
2023-05-19T13:30:58.327Z,56.53
2023-05-19T13:32:01.512Z,56.38
2023-05-19T13:33:04.724Z,55.95
2023-05-19T13:34:08.010Z,56.57
2023-05-19T13:35:10.406Z,56.60
2023-05-19T13:36:13.241Z,56.59
2023-05-19T13:37:15.836Z,56.94
2023-05-19T13:38:18.778Z,56.22
2023-05-19T13:39:20.656Z,56.38
2023-05-19T13:40:24.174Z,56.59
2023-05-19T13:41:26.193Z,56.92
2023-05-19T13:42:29.510Z,56.53
2023-05-19T13:43:32.592Z,56.82
2023-05-19T13:44:36.842Z,57.11
2023-05-19T13:45:39.185Z,57.15
2023-05-19T13:46:45.676Z,57.63
2023-05-19T13:47:49.224Z,57.33
2023-05-19T13:48:52.121Z,56.71
2023-05-19T13:49:55.327Z,56.23
2023-05-19T13:50:58.218Z,56.59
2023-05-19T13:52:00.176Z,56.71
2023-05-19T13:53:03.668Z,57.00
2023-05-19T13:54:05.677Z,57.15
2023-05-19T13:55:09.517Z,56.64